Time;durP1;ratioP1;P1;durP2;ratioP2;P2;SDS_P1;SDS_P2;PMS_P1;PMS_P2;Temp;Humidity;BMP_temperature;BMP_pressure;BME280_temperature;BME280_humidity;BME280_pressure;Samples;Min_cycle;Max_cycle;Signal;HPM_P1;HPM_P2
2023/08/23 00:00:08;;;;;;;0.80;0.80;;;19.70;72.10;;;;;;5015485;28;20409;-75
2023/08/23 00:02:34;;;;;;;0.70;0.50;;;19.70;72.10;;;;;;5011802;28;20116;-75
2023/08/23 00:04:59;;;;;;;1.20;0.60;;;19.70;72.00;;;;;;5009721;28;20170;-75
2023/08/23 00:07:25;;;;;;;2.72;0.95;;;19.60;71.90;;;;;;5010308;28;20041;-75
2023/08/23 00:09:52;;;;;;;0.40;0.40;;;19.60;72.00;;;;;;5015516;28;20355;-75
2023/08/23 00:12:17;;;;;;;0.70;0.70;;;19.60;72.10;;;;;;5017615;28;20040;-75
2023/08/23 00:14:43;;;;;;;1.17;0.95;;;19.50;72.10;;;;;;5018376;28;20482;-75
2023/08/23 00:17:09;;;;;;;2.05;0.50;;;19.60;72.10;;;;;;5012027;28;20038;-75
2023/08/23 00:19:35;;;;;;;0.80;0.80;;;19.60;72.70;;;;;;5016099;28;20022;-73
2023/08/23 00:22:02;;;;;;;1.98;1.30;;;19.50;72.10;;;;;;5010075;28;20033;-73
2023/08/23 00:24:28;;;;;;;0.40;0.40;;;19.50;72.20;;;;;;5015047;28;20026;-73
2023/08/23 00:26:55;;;;;;;1.85;1.05;;;19.50;72.30;;;;;;5010971;28;20045;-73
2023/08/23 00:29:22;;;;;;;0.98;0.70;;;19.50;72.50;;;;;;5017380;28;20018;-73
2023/08/23 00:31:48;;;;;;;0.93;0.73;;;19.40;72.40;;;;;;5015800;28;20028;-73
2023/08/23 00:34:13;;;;;;;1.05;0.90;;;19.40;72.50;;;;;;5014226;28;20050;-73
2023/08/23 00:36:39;;;;;;;2.13;0.70;;;19.40;72.50;;;;;;5012897;28;20037;-73
2023/08/23 00:39:05;;;;;;;0.75;0.65;;;19.40;72.70;;;;;;5016258;28;20481;-73
2023/08/23 00:41:30;;;;;;;0.50;0.50;;;19.40;72.70;;;;;;5013002;28;20105;-73
2023/08/23 00:43:56;;;;;;;0.85;0.60;;;19.30;72.70;;;;;;5004961;28;20048;-73
2023/08/23 00:46:22;;;;;;;0.70;0.55;;;19.30;72.80;;;;;;5013164;28;20033;-73
2023/08/23 00:48:49;;;;;;;0.65;0.63;;;19.30;73.40;;;;;;5011433;28;20461;-73
2023/08/23 00:51:16;;;;;;;0.68;0.68;;;19.30;73.00;;;;;;5015848;28;20029;-72
2023/08/23 00:53:44;;;;;;;1.40;0.85;;;19.20;73.00;;;;;;5014850;28;20041;-73
2023/08/23 00:56:11;;;;;;;0.82;0.82;;;19.20;73.10;;;;;;5010309;28;20041;-73
2023/08/23 00:58:37;;;;;;;1.23;0.90;;;19.20;73.20;;;;;;4994987;28;20065;-73
2023/08/23 01:01:03;;;;;;;0.90;0.60;;;19.20;73.20;;;;;;5014714;28;20053;-73
2023/08/23 01:03:28;;;;;;;0.40;0.30;;;19.20;73.00;;;;;;5009845;28;20093;-73
2023/08/23 01:06:25;;;;;;;1.38;0.88;;;19.20;73.00;;;;;;5030775;28;20514;-75
2023/08/23 01:09:19;;;;;;;1.17;0.90;;;19.20;72.90;;;;;;5011238;28;20025;-75
2023/08/23 01:12:03;;;;;;;0.75;0.75;;;19.20;73.10;;;;;;5007150;28;20121;-73
2023/08/23 01:14:29;;;;;;;1.00;0.70;;;19.10;73.30;;;;;;5014495;28;20483;-73
2023/08/23 01:16:58;;;;;;;0.73;0.60;;;19.10;73.50;;;;;;5015932;28;20029;-73
2023/08/23 01:19:38;;;;;;;1.02;0.88;;;19.10;73.50;;;;;;5021151;28;20736;-73
2023/08/23 01:22:05;;;;;;;1.40;1.13;;;19.10;74.20;;;;;;5010910;28;20101;-73
2023/08/23 01:24:31;;;;;;;1.10;0.68;;;19.00;73.70;;;;;;5002786;28;20033;-73
2023/08/23 01:26:57;;;;;;;0.85;0.70;;;19.00;73.80;;;;;;5009782;28;20381;-73
2023/08/23 01:29:23;;;;;;;0.70;0.65;;;19.00;73.70;;;;;;5011817;28;20057;-73
2023/08/23 01:31:53;;;;;;;0.60;0.60;;;19.00;73.50;;;;;;5017096;28;20038;-73
2023/08/23 01:34:26;;;;;;;1.40;0.95;;;19.00;73.30;;;;;;5018225;28;20555;-73
2023/08/23 01:36:54;;;;;;;0.68;0.63;;;19.00;73.20;;;;;;5010031;28;20018;-73
2023/08/23 01:39:25;;;;;;;0.70;0.60;;;19.00;73.30;;;;;;5009893;28;20045;-73
2023/08/23 01:41:51;;;;;;;0.70;0.70;;;19.00;73.20;;;;;;5013100;28;20030;-73
2023/08/23 01:44:17;;;;;;;0.70;0.70;;;19.00;73.30;;;;;;5007878;28;20049;-73
2023/08/23 01:46:43;;;;;;;0.60;0.60;;;19.00;73.30;;;;;;5014175;28;20125;-73
2023/08/23 01:49:09;;;;;;;1.10;0.80;;;19.00;73.50;;;;;;5013868;28;20029;-73
2023/08/23 01:51:35;;;;;;;0.80;0.70;;;19.00;73.40;;;;;;5014762;28;20126;-73
2023/08/23 01:54:01;;;;;;;0.60;0.52;;;19.00;73.40;;;;;;5008415;28;20132;-73
2023/08/23 01:56:26;;;;;;;0.65;0.50;;;19.00;73.50;;;;;;5011892;28;20053;-73
2023/08/23 01:58:52;;;;;;;0.60;0.60;;;18.90;73.50;;;;;;5009250;28;20032;-73
2023/08/23 02:01:18;;;;;;;1.25;0.55;;;19.00;73.50;;;;;;4993015;28;20045;-73
2023/08/23 02:03:44;;;;;;;0.77;0.70;;;19.00;73.50;;;;;;5016397;28;20022;-74
2023/08/23 02:06:09;;;;;;;0.50;0.50;;;18.90;73.60;;;;;;5014690;28;20079;-73
2023/08/23 02:08:36;;;;;;;0.82;0.77;;;18.90;73.70;;;;;;4996117;28;20065;-73
2023/08/23 02:11:01;;;;;;;0.98;0.60;;;18.90;73.80;;;;;;5014799;28;20029;-74
2023/08/23 02:13:27;;;;;;;1.05;0.60;;;18.90;73.80;;;;;;5014783;28;20468;-73
2023/08/23 02:15:53;;;;;;;0.98;0.80;;;18.90;73.80;;;;;;5013965;28;20087;-73
2023/08/23 02:18:20;;;;;;;0.90;0.75;;;18.90;73.90;;;;;;5013865;28;20038;-73
2023/08/23 02:20:45;;;;;;;1.10;0.60;;;18.90;73.90;;;;;;5012025;28;20061;-73
2023/08/23 02:23:11;;;;;;;1.90;0.82;;;18.80;73.80;;;;;;4998262;28;20533;-73
2023/08/23 02:25:37;;;;;;;1.30;0.88;;;18.80;73.90;;;;;;5011411;28;20041;-75
2023/08/23 02:28:02;;;;;;;2.47;1.10;;;18.80;73.90;;;;;;5012599;28;20034;-75
2023/08/23 02:30:30;;;;;;;1.40;0.85;;;18.80;73.90;;;;;;5019050;28;20052;-75
2023/08/23 02:32:55;;;;;;;0.50;0.50;;;18.80;73.90;;;;;;5009030;28;20029;-74
2023/08/23 02:35:21;;;;;;;0.50;0.50;;;18.70;73.90;;;;;;5001452;28;20527;-73
2023/08/23 02:37:47;;;;;;;0.40;0.40;;;18.70;73.90;;;;;;5005844;28;20029;-73
2023/08/23 02:40:13;;;;;;;0.60;0.60;;;18.70;73.90;;;;;;5006983;28;20026;-74
2023/08/23 02:42:38;;;;;;;0.63;0.60;;;18.70;73.90;;;;;;5011060;28;20441;-74
2023/08/23 02:45:04;;;;;;;0.85;0.75;;;18.60;73.90;;;;;;5014441;28;20084;-73
2023/08/23 02:47:30;;;;;;;0.35;0.35;;;18.60;73.90;;;;;;5013646;28;20034;-74
2023/08/23 02:49:56;;;;;;;0.80;0.60;;;18.60;73.90;;;;;;5013371;28;20361;-73
2023/08/23 02:52:21;;;;;;;1.30;0.75;;;18.60;74.00;;;;;;5007510;28;20038;-73
2023/08/23 02:54:47;;;;;;;1.20;0.68;;;18.50;73.80;;;;;;5010219;28;20038;-74
2023/08/23 02:57:13;;;;;;;0.93;0.82;;;18.50;73.90;;;;;;5009771;28;20047;-74
2023/08/23 02:59:38;;;;;;;0.85;0.50;;;18.50;74.00;;;;;;5017005;28;20049;-74
2023/08/23 03:02:04;;;;;;;0.80;0.80;;;18.40;74.00;;;;;;5009059;28;20040;-74
2023/08/23 03:04:30;;;;;;;1.10;0.73;;;18.40;74.10;;;;;;5014151;28;20152;-76
2023/08/23 03:06:55;;;;;;;0.75;0.52;;;18.40;74.20;;;;;;5000385;28;20022;-76
2023/08/23 03:09:21;;;;;;;1.15;0.60;;;18.40;74.30;;;;;;5010216;28;20113;-74
2023/08/23 03:11:47;;;;;;;1.00;0.60;;;18.40;74.30;;;;;;5011475;28;20052;-74
2023/08/23 03:14:12;;;;;;;0.47;0.47;;;18.40;74.50;;;;;;4997353;28;20030;-74
2023/08/23 03:16:38;;;;;;;0.50;0.50;;;18.30;74.40;;;;;;4991765;28;20022;-74
2023/08/23 03:19:03;;;;;;;1.98;0.70;;;18.30;74.40;;;;;;5015650;28;20083;-74
2023/08/23 03:21:29;;;;;;;0.75;0.68;;;18.40;74.50;;;;;;5031262;28;20049;-73
2023/08/23 03:23:55;;;;;;;0.73;0.50;;;18.40;74.60;;;;;;5013843;28;20110;-74
2023/08/23 03:26:20;;;;;;;0.82;0.60;;;18.40;74.80;;;;;;5009258;28;20068;-74
2023/08/23 03:28:46;;;;;;;0.68;0.52;;;18.40;75.00;;;;;;5024173;28;20808;-73
2023/08/23 03:31:12;;;;;;;0.52;0.47;;;18.40;75.00;;;;;;5009378;28;20026;-76
2023/08/23 03:33:37;;;;;;;0.60;0.60;;;18.40;75.20;;;;;;5018811;28;20133;-76
2023/08/23 03:36:03;;;;;;;0.50;0.47;;;18.30;75.20;;;;;;5025470;28;20029;-76
2023/08/23 03:38:29;;;;;;;0.68;0.50;;;18.30;75.10;;;;;;4992842;28;20477;-76
2023/08/23 03:40:54;;;;;;;0.52;0.50;;;18.30;75.00;;;;;;5012475;28;20594;-76
2023/08/23 03:43:20;;;;;;;0.30;0.30;;;18.30;75.00;;;;;;5026302;28;20030;-76
2023/08/23 03:45:50;;;;;;;1.20;0.82;;;18.30;74.90;;;;;;5009718;28;20026;-76
2023/08/23 03:48:18;;;;;;;1.40;0.60;;;18.30;74.90;;;;;;5009482;28;20049;-74
2023/08/23 03:50:44;;;;;;;0.43;0.40;;;18.30;74.90;;;;;;5014468;28;20181;-74
2023/08/23 03:53:10;;;;;;;0.52;0.40;;;18.20;74.80;;;;;;5008731;28;20412;-74
2023/08/23 03:55:36;;;;;;;0.43;0.38;;;18.20;74.80;;;;;;5009994;28;20076;-74
2023/08/23 03:58:04;;;;;;;0.95;0.50;;;18.20;75.00;;;;;;5007751;28;20384;-74
2023/08/23 04:00:29;;;;;;;0.85;0.47;;;18.20;74.90;;;;;;5012279;28;20030;-74
2023/08/23 04:02:55;;;;;;;0.75;0.60;;;18.10;75.00;;;;;;5022402;28;20488;-74
2023/08/23 04:05:21;;;;;;;0.70;0.40;;;18.10;75.00;;;;;;5011884;28;20036;-74
2023/08/23 04:07:46;;;;;;;1.48;0.65;;;18.10;74.90;;;;;;5005552;28;20120;-74
2023/08/23 04:10:12;;;;;;;0.40;0.40;;;18.10;74.90;;;;;;5011899;28;20026;-74
2023/08/23 04:12:38;;;;;;;1.15;0.60;;;18.00;74.90;;;;;;5008738;28;20033;-74
2023/08/23 04:15:04;;;;;;;0.52;0.40;;;18.00;75.10;;;;;;5008498;28;20034;-74
2023/08/23 04:17:30;;;;;;;0.75;0.50;;;18.00;75.10;;;;;;4989188;28;20038;-74
2023/08/23 04:19:56;;;;;;;0.60;0.40;;;18.00;75.10;;;;;;5010514;28;20029;-74
2023/08/23 04:22:21;;;;;;;0.47;0.40;;;18.00;75.00;;;;;;4995239;28;20385;-74
2023/08/23 04:24:49;;;;;;;0.65;0.50;;;18.00;75.00;;;;;;5009546;28;20057;-74
2023/08/23 04:27:15;;;;;;;1.10;0.85;;;18.00;75.00;;;;;;5007118;28;20485;-74
2023/08/23 04:29:41;;;;;;;0.43;0.40;;;17.90;75.00;;;;;;5006775;28;20033;-74
2023/08/23 04:32:09;;;;;;;0.45;0.40;;;17.90;74.90;;;;;;5011333;28;20033;-76
2023/08/23 04:34:35;;;;;;;1.10;0.93;;;18.00;74.90;;;;;;5027008;28;20451;-76
2023/08/23 04:37:01;;;;;;;2.08;0.63;;;17.90;75.00;;;;;;5006031;28;20113;-75
2023/08/23 04:39:27;;;;;;;0.40;0.40;;;18.00;75.10;;;;;;5008044;28;20034;-75
2023/08/23 04:41:52;;;;;;;0.70;0.50;;;18.00;75.10;;;;;;5010147;28;20105;-76
2023/08/23 04:44:18;;;;;;;0.95;0.60;;;17.90;75.10;;;;;;5006318;28;20097;-76
2023/08/23 04:46:44;;;;;;;0.80;0.50;;;17.90;75.30;;;;;;5018511;28;20038;-76
2023/08/23 04:49:10;;;;;;;0.50;0.50;;;17.90;75.40;;;;;;5009956;28;20033;-74
2023/08/23 04:51:36;;;;;;;0.90;0.52;;;17.90;75.40;;;;;;5013829;28;20034;-74
2023/08/23 04:54:01;;;;;;;0.77;0.40;;;17.90;75.50;;;;;;5010151;28;20036;-72
2023/08/23 04:56:27;;;;;;;1.23;1.00;;;17.90;75.60;;;;;;5014264;28;20034;-74
2023/08/23 04:58:53;;;;;;;0.68;0.65;;;17.80;75.80;;;;;;5012640;28;20030;-74
2023/08/23 05:01:18;;;;;;;1.20;0.57;;;17.90;75.80;;;;;;5015947;28;20034;-74
2023/08/23 05:03:44;;;;;;;0.35;0.30;;;17.90;75.70;;;;;;5009348;28;20037;-72
2023/08/23 05:06:10;;;;;;;0.95;0.60;;;17.90;75.70;;;;;;5015505;28;20057;-71
2023/08/23 05:08:35;;;;;;;1.08;0.88;;;18.00;75.80;;;;;;5014000;28;20030;-71
2023/08/23 05:11:01;;;;;;;0.50;0.50;;;18.00;75.80;;;;;;5033349;28;20503;-72
2023/08/23 05:13:27;;;;;;;0.52;0.50;;;18.00;75.90;;;;;;5017391;28;20480;-73
2023/08/23 05:15:57;;;;;;;1.48;0.80;;;18.10;76.10;;;;;;5019338;28;20029;-72
2023/08/23 05:18:23;;;;;;;0.50;0.50;;;18.10;76.00;;;;;;5003351;28;20084;-73
2023/08/23 05:20:59;;;;;;;0.73;0.73;;;18.20;76.10;;;;;;5008895;28;20049;-75
2023/08/23 05:23:25;;;;;;;0.60;0.60;;;18.20;76.10;;;;;;4994237;28;20041;-75
2023/08/23 05:25:52;;;;;;;0.85;0.65;;;18.30;76.20;;;;;;5011666;28;20029;-76
2023/08/23 05:28:18;;;;;;;0.60;0.60;;;18.30;76.20;;;;;;5015092;28;20130;-76
2023/08/23 05:30:45;;;;;;;0.93;0.80;;;18.30;76.20;;;;;;5011079;28;20030;-75
2023/08/23 05:33:20;;;;;;;0.55;0.55;;;18.40;76.20;;;;;;5010472;28;20022;-75
2023/08/23 05:35:46;;;;;;;0.52;0.43;;;18.40;76.20;;;;;;4998046;28;20331;-76
2023/08/23 05:38:12;;;;;;;0.70;0.63;;;18.50;76.30;;;;;;5009150;28;20481;-75
2023/08/23 05:40:39;;;;;;;1.08;0.73;;;18.50;76.30;;;;;;5014735;28;20022;-75
2023/08/23 05:43:05;;;;;;;1.40;0.80;;;18.50;76.40;;;;;;5015739;28;20368;-75
2023/08/23 05:45:31;;;;;;;0.68;0.68;;;18.60;77.00;;;;;;5011014;28;20092;-75
2023/08/23 05:47:59;;;;;;;0.80;0.80;;;18.70;76.50;;;;;;5013205;28;20025;-75
2023/08/23 05:50:25;;;;;;;0.80;0.70;;;18.70;76.50;;;;;;5011176;28;21194;-75
2023/08/23 05:52:50;;;;;;;1.30;1.20;;;18.70;76.60;;;;;;5017171;28;20026;-75
2023/08/23 05:55:16;;;;;;;2.83;0.90;;;18.80;76.70;;;;;;5013336;28;20046;-75
2023/08/23 05:57:42;;;;;;;0.77;0.65;;;18.90;76.90;;;;;;5009948;28;20083;-75
2023/08/23 06:00:09;;;;;;;1.17;0.98;;;18.90;76.90;;;;;;5009935;28;20388;-75
2023/08/23 06:02:35;;;;;;;1.20;0.90;;;19.00;76.90;;;;;;5010669;28;20065;-72
2023/08/23 06:05:03;;;;;;;1.52;1.33;;;19.00;77.10;;;;;;5011025;28;20405;-72
2023/08/23 06:07:29;;;;;;;2.15;1.30;;;19.10;77.20;;;;;;5011117;28;20033;-74
2023/08/23 06:09:54;;;;;;;1.77;1.05;;;19.10;77.40;;;;;;5008752;28;20435;-72
2023/08/23 06:12:20;;;;;;;1.27;1.02;;;19.10;77.40;;;;;;5009032;28;20037;-72
2023/08/23 06:14:47;;;;;;;1.45;1.10;;;19.20;77.40;;;;;;5010076;28;20030;-72
2023/08/23 06:17:12;;;;;;;1.90;1.15;;;19.30;77.50;;;;;;5014409;28;20026;-72
2023/08/23 06:19:38;;;;;;;1.60;1.00;;;19.40;77.50;;;;;;5026423;28;20045;-72
2023/08/23 06:22:04;;;;;;;2.47;1.50;;;19.50;77.40;;;;;;5015959;28;20026;-72
2023/08/23 06:24:29;;;;;;;2.15;1.25;;;19.60;77.50;;;;;;5014719;28;20431;-72
2023/08/23 06:26:55;;;;;;;2.30;1.50;;;19.70;77.30;;;;;;5013084;28;20132;-72
2023/08/23 06:29:21;;;;;;;3.97;1.52;;;19.80;77.30;;;;;;5009926;28;20026;-72
2023/08/23 06:31:46;;;;;;;2.47;1.42;;;19.80;77.60;;;;;;5009156;28;20018;-72
2023/08/23 06:34:12;;;;;;;3.40;2.28;;;19.90;77.60;;;;;;5010243;28;20057;-74
2023/08/23 06:36:38;;;;;;;5.47;2.50;;;20.00;78.10;;;;;;5013309;28;20033;-74
2023/08/23 06:39:03;;;;;;;3.03;1.73;;;20.00;78.40;;;;;;5009673;28;20263;-74
2023/08/23 06:41:29;;;;;;;2.40;1.60;;;20.10;78.30;;;;;;5007309;28;20065;-72
2023/08/23 06:43:59;;;;;;;1.83;1.73;;;20.20;78.10;;;;;;5001800;28;20401;-72
2023/08/23 06:46:25;;;;;;;2.78;1.73;;;20.20;77.90;;;;;;5006138;28;20650;-72
2023/08/23 06:48:51;;;;;;;2.35;1.67;;;20.30;77.90;;;;;;5010089;28;20030;-72
2023/08/23 06:51:16;;;;;;;2.28;1.52;;;20.40;77.90;;;;;;5010898;28;20528;-72
2023/08/23 06:53:42;;;;;;;2.08;1.30;;;20.50;77.80;;;;;;5004061;28;20473;-71
2023/08/23 06:56:09;;;;;;;2.75;1.90;;;20.60;77.60;;;;;;5011904;28;20497;-70
2023/08/23 06:58:35;;;;;;;1.75;1.52;;;20.70;77.50;;;;;;5030629;28;20032;-71
2023/08/23 07:01:01;;;;;;;2.28;1.45;;;20.70;77.40;;;;;;5008785;28;20022;-69
2023/08/23 07:03:27;;;;;;;2.08;1.52;;;20.80;77.30;;;;;;5009914;28;20022;-70
2023/08/23 07:05:52;;;;;;;2.35;1.60;;;20.80;77.20;;;;;;5002990;28;20507;-70
2023/08/23 07:08:18;;;;;;;2.13;1.52;;;20.90;76.90;;;;;;5007232;28;20042;-67
2023/08/23 07:10:44;;;;;;;2.83;1.55;;;21.00;76.70;;;;;;5005738;28;20401;-69
2023/08/23 07:13:09;;;;;;;2.28;1.70;;;21.00;76.30;;;;;;5009899;28;20033;-69
2023/08/23 07:15:35;;;;;;;3.28;1.52;;;21.10;76.20;;;;;;5001538;28;20513;-70
2023/08/23 07:18:01;;;;;;;3.42;1.20;;;21.20;76.00;;;;;;5003824;28;20041;-70
2023/08/23 07:20:27;;;;;;;1.75;1.40;;;21.20;75.70;;;;;;5006148;28;20034;-69
2023/08/23 07:22:53;;;;;;;2.80;1.95;;;21.30;75.60;;;;;;5021340;28;20121;-71
2023/08/23 07:25:18;;;;;;;2.38;1.38;;;21.30;75.40;;;;;;5009479;28;20045;-71
2023/08/23 07:27:44;;;;;;;1.75;1.45;;;21.40;75.20;;;;;;5004567;28;20041;-73
2023/08/23 07:30:11;;;;;;;1.67;1.15;;;21.50;74.50;;;;;;4997756;28;20069;-71
2023/08/23 07:32:37;;;;;;;0.95;0.85;;;21.50;74.40;;;;;;5004941;28;20121;-72
2023/08/23 07:35:03;;;;;;;4.35;1.40;;;21.60;74.40;;;;;;4994891;28;20519;-72
2023/08/23 07:37:29;;;;;;;2.38;1.35;;;21.60;74.00;;;;;;5010627;28;20033;-73
2023/08/23 07:39:55;;;;;;;3.10;1.10;;;21.70;73.80;;;;;;5003973;28;20116;-76
2023/08/23 07:42:21;;;;;;;2.42;1.63;;;21.80;73.70;;;;;;5004142;28;20021;-73
2023/08/23 07:44:47;;;;;;;2.72;1.55;;;21.90;73.30;;;;;;5010852;28;20030;-70
2023/08/23 07:47:12;;;;;;;1.83;1.38;;;21.90;73.10;;;;;;5005243;28;20034;-71
2023/08/23 07:50:04;;;;;;;1.13;0.90;;;22.00;73.20;;;;;;5006180;28;20038;-70
2023/08/23 07:52:30;;;;;;;1.85;1.10;;;22.10;73.00;;;;;;5011845;28;20092;-73
2023/08/23 07:54:56;;;;;;;1.33;0.90;;;22.10;72.50;;;;;;5008525;28;20057;-75
2023/08/23 07:57:21;;;;;;;1.83;0.98;;;22.20;72.40;;;;;;5013629;28;20117;-73
2023/08/23 07:59:47;;;;;;;2.03;1.38;;;22.30;71.50;;;;;;5008603;28;20021;-71
2023/08/23 08:02:13;;;;;;;1.23;1.13;;;22.30;71.00;;;;;;5008687;28;20036;-71
2023/08/23 08:04:38;;;;;;;1.95;1.67;;;22.30;71.10;;;;;;5006138;28;20385;-71
2023/08/23 08:07:04;;;;;;;1.38;1.10;;;22.40;70.70;;;;;;5009615;28;20065;-72
2023/08/23 08:09:31;;;;;;;0.85;0.65;;;22.50;70.50;;;;;;5000171;28;20386;-71
2023/08/23 08:11:56;;;;;;;1.20;0.85;;;22.60;70.60;;;;;;5003957;28;20021;-71
2023/08/23 08:14:22;;;;;;;2.05;1.38;;;22.70;70.20;;;;;;5003522;28;20494;-72
2023/08/23 08:16:48;;;;;;;1.95;1.25;;;22.80;69.80;;;;;;5004050;28;20053;-72
2023/08/23 08:19:13;;;;;;;0.90;0.55;;;22.70;69.50;;;;;;5006121;28;20565;-72
2023/08/23 08:21:40;;;;;;;0.50;0.50;;;22.80;69.70;;;;;;5022568;28;20538;-75
2023/08/23 08:24:06;;;;;;;3.13;0.98;;;22.90;69.60;;;;;;4989647;28;20030;-73
2023/08/23 08:26:32;;;;;;;1.13;0.80;;;23.00;69.40;;;;;;5016469;28;20344;-72
2023/08/23 08:28:58;;;;;;;0.68;0.60;;;23.10;69.30;;;;;;5019890;28;20033;-72
2023/08/23 08:31:23;;;;;;;1.42;0.73;;;23.20;69.10;;;;;;5015580;28;20042;-72
2023/08/23 08:33:49;;;;;;;1.20;0.90;;;23.30;68.50;;;;;;5007326;28;20045;-72
2023/08/23 08:36:15;;;;;;;1.17;0.80;;;23.30;68.20;;;;;;5016620;28;20052;-72
2023/08/23 08:38:41;;;;;;;0.80;0.77;;;23.40;68.30;;;;;;5007563;28;20033;-72
2023/08/23 08:41:09;;;;;;;4.78;1.38;;;23.60;68.30;;;;;;4982794;28;20121;-72
2023/08/23 08:43:36;;;;;;;0.70;0.68;;;23.60;67.20;;;;;;5015329;28;20493;-73
2023/08/23 08:46:05;;;;;;;0.77;0.70;;;23.70;67.50;;;;;;5006947;28;20031;-73
2023/08/23 08:48:31;;;;;;;0.95;0.85;;;23.70;67.40;;;;;;5008195;28;20072;-72
2023/08/23 08:50:59;;;;;;;0.85;0.70;;;23.80;67.30;;;;;;5012013;28;20029;-72
2023/08/23 08:53:25;;;;;;;3.15;1.25;;;24.00;67.00;;;;;;5014983;28;20480;-72
2023/08/23 08:55:52;;;;;;;3.80;1.90;;;24.00;66.20;;;;;;5015934;28;20521;-71
2023/08/23 08:58:20;;;;;;;1.65;1.27;;;24.00;65.70;;;;;;5016805;28;20033;-71
2023/08/23 09:00:49;;;;;;;2.38;0.82;;;24.00;65.30;;;;;;5004711;28;20030;-70
2023/08/23 09:03:19;;;;;;;2.42;1.35;;;24.10;65.60;;;;;;5007127;28;20489;-71
2023/08/23 09:05:48;;;;;;;2.72;1.52;;;24.10;65.20;;;;;;5007979;28;20026;-70
2023/08/23 09:08:14;;;;;;;1.05;0.95;;;24.20;65.90;;;;;;5031188;28;20470;-70
2023/08/23 09:10:40;;;;;;;3.00;1.17;;;24.20;64.80;;;;;;5005869;28;20033;-69
2023/08/23 09:13:06;;;;;;;1.23;0.80;;;24.20;65.00;;;;;;5012320;28;20030;-70
2023/08/23 09:15:32;;;;;;;1.58;0.75;;;24.30;64.90;;;;;;5010186;28;20041;-71
2023/08/23 09:17:59;;;;;;;1.02;0.80;;;24.50;64.90;;;;;;5010006;28;20379;-71
2023/08/23 09:20:25;;;;;;;1.33;1.10;;;24.70;64.70;;;;;;5005887;28;20421;-70
2023/08/23 09:22:55;;;;;;;1.50;1.00;;;24.80;63.90;;;;;;5010327;28;20026;-75
2023/08/23 09:25:22;;;;;;;1.20;0.88;;;24.70;62.70;;;;;;5007003;28;20033;-75
2023/08/23 09:27:48;;;;;;;0.70;0.70;;;24.80;63.40;;;;;;5008883;28;20064;-74
2023/08/23 09:30:14;;;;;;;1.58;0.75;;;24.90;63.10;;;;;;5015552;28;20438;-74
2023/08/23 09:32:43;;;;;;;1.85;1.00;;;25.00;62.90;;;;;;5013049;28;20068;-74
2023/08/23 09:35:13;;;;;;;0.75;0.70;;;25.10;62.50;;;;;;5009142;28;20029;-74
2023/08/23 09:37:40;;;;;;;0.80;0.60;;;25.20;61.50;;;;;;5006561;28;20034;-71
2023/08/23 09:40:18;;;;;;;0.77;0.77;;;25.30;61.40;;;;;;5005838;28;20022;-71
2023/08/23 09:42:45;;;;;;;3.15;0.88;;;25.30;60.20;;;;;;4995738;28;20037;-71
2023/08/23 09:45:23;;;;;;;0.60;0.60;;;25.40;59.40;;;;;;5011572;28;20018;-74
2023/08/23 09:47:53;;;;;;;1.08;0.70;;;25.50;59.90;;;;;;5011646;28;20112;-71
2023/08/23 09:50:24;;;;;;;0.98;0.80;;;25.60;59.60;;;;;;5011699;28;20237;-72
2023/08/23 09:52:52;;;;;;;1.08;0.98;;;25.80;58.60;;;;;;5007203;28;20117;-74
2023/08/23 09:55:18;;;;;;;1.10;0.93;;;25.80;58.30;;;;;;5011298;28;20053;-72
2023/08/23 09:57:44;;;;;;;0.93;0.88;;;25.90;57.80;;;;;;5014063;28;20389;-71
2023/08/23 10:00:11;;;;;;;1.10;1.00;;;25.90;58.50;;;;;;5028622;28;20469;-71
2023/08/23 10:02:40;;;;;;;1.17;0.68;;;26.00;58.70;;;;;;5008754;28;20022;-74
2023/08/23 10:05:11;;;;;;;0.63;0.63;;;26.20;58.70;;;;;;5008743;28;20038;-72
2023/08/23 10:07:40;;;;;;;0.80;0.80;;;26.30;58.60;;;;;;4996919;28;20434;-72
2023/08/23 10:10:06;;;;;;;0.50;0.50;;;26.50;58.20;;;;;;5007167;28;20076;-74
2023/08/23 10:12:35;;;;;;;1.02;0.70;;;26.50;55.80;;;;;;5004686;28;20482;-74
2023/08/23 10:15:03;;;;;;;1.10;0.60;;;26.50;54.60;;;;;;5004379;28;20030;-71
2023/08/23 10:17:30;;;;;;;0.50;0.50;;;26.50;54.10;;;;;;5006349;28;20038;-71
2023/08/23 10:19:56;;;;;;;0.82;0.60;;;26.60;54.50;;;;;;5006784;28;20116;-72
2023/08/23 10:22:24;;;;;;;3.30;0.70;;;26.70;54.70;;;;;;5007893;28;20029;-74
2023/08/23 10:24:50;;;;;;;0.63;0.60;;;26.80;54.80;;;;;;5008494;28;20069;-74
2023/08/23 10:27:17;;;;;;;0.60;0.60;;;26.90;54.80;;;;;;5007995;28;20037;-74
2023/08/23 10:29:49;;;;;;;0.68;0.60;;;27.00;54.80;;;;;;5008436;28;20504;-71
2023/08/23 10:32:14;;;;;;;0.77;0.77;;;27.20;54.70;;;;;;5005721;28;20034;-71
2023/08/23 10:34:40;;;;;;;2.42;0.90;;;27.20;52.00;;;;;;5011864;28;20021;-74
2023/08/23 10:37:19;;;;;;;0.77;0.77;;;27.30;52.60;;;;;;5006857;28;20097;-71
2023/08/23 10:39:54;;;;;;;0.80;0.80;;;27.40;52.00;;;;;;5011740;28;20064;-74
2023/08/23 10:42:21;;;;;;;3.38;0.80;;;27.50;51.90;;;;;;5007589;28;20359;-71
2023/08/23 10:44:59;;;;;;;1.27;0.75;;;27.50;51.00;;;;;;5014971;28;20053;-74
2023/08/23 10:47:26;;;;;;;0.90;0.90;;;27.60;50.30;;;;;;5006828;28;20140;-74
2023/08/23 10:49:52;;;;;;;1.20;0.75;;;27.60;50.80;;;;;;5006002;28;20514;-74
2023/08/23 10:52:21;;;;;;;1.25;0.90;;;27.70;51.40;;;;;;5007472;28;20416;-72
2023/08/23 10:54:47;;;;;;;0.50;0.50;;;27.80;51.10;;;;;;4990705;28;20032;-74
2023/08/23 10:57:13;;;;;;;0.80;0.70;;;28.10;51.70;;;;;;5010097;28;20856;-72
2023/08/23 10:59:38;;;;;;;0.50;0.50;;;28.20;51.50;;;;;;5005883;28;20029;-74
2023/08/23 11:02:06;;;;;;;1.33;0.90;;;28.40;51.70;;;;;;5006363;28;20064;-74
2023/08/23 11:04:34;;;;;;;1.00;0.93;;;28.50;49.70;;;;;;5008572;28;20033;-71
2023/08/23 11:06:59;;;;;;;0.82;0.75;;;28.50;49.60;;;;;;5008882;28;20524;-74
2023/08/23 11:09:25;;;;;;;0.40;0.40;;;28.60;48.90;;;;;;5009510;28;20041;-71
2023/08/23 11:11:51;;;;;;;1.05;0.50;;;28.70;49.50;;;;;;4989229;28;20103;-72
2023/08/23 11:14:17;;;;;;;0.88;0.88;;;28.80;49.60;;;;;;5009468;28;20168;-74
2023/08/23 11:16:43;;;;;;;2.70;0.85;;;28.90;49.30;;;;;;5012380;28;20057;-73
2023/08/23 11:19:09;;;;;;;1.15;0.68;;;29.00;49.40;;;;;;5010769;28;20030;-72
2023/08/23 11:21:35;;;;;;;1.45;0.57;;;29.10;49.50;;;;;;5008033;28;20405;-73
2023/08/23 11:24:05;;;;;;;0.88;0.60;;;29.20;49.50;;;;;;5007016;28;20034;-72
2023/08/23 11:26:35;;;;;;;0.82;0.60;;;29.40;49.20;;;;;;5011271;28;20449;-74
2023/08/23 11:29:01;;;;;;;2.67;0.80;;;29.40;48.20;;;;;;5008554;28;20091;-73
2023/08/23 11:31:29;;;;;;;0.60;0.55;;;29.40;48.20;;;;;;5009067;28;20079;-74
2023/08/23 11:33:59;;;;;;;1.33;0.80;;;29.50;48.70;;;;;;5008678;28;20069;-73
2023/08/23 11:36:26;;;;;;;0.85;0.57;;;29.50;47.20;;;;;;5007039;28;20033;-74
2023/08/23 11:38:53;;;;;;;0.50;0.50;;;29.50;47.30;;;;;;5008415;28;20430;-74
2023/08/23 11:41:30;;;;;;;0.95;0.70;;;29.60;47.40;;;;;;5012084;28;20103;-74
2023/08/23 11:43:55;;;;;;;2.30;0.82;;;29.70;47.60;;;;;;5005469;28;20033;-72
2023/08/23 11:46:21;;;;;;;0.60;0.60;;;29.80;47.30;;;;;;5010590;28;20030;-70
2023/08/23 11:48:47;;;;;;;0.73;0.60;;;29.90;47.70;;;;;;5013480;28;20543;-74
2023/08/23 11:51:13;;;;;;;1.08;0.85;;;30.10;47.20;;;;;;5010058;28;20022;-75
2023/08/23 11:53:54;;;;;;;0.40;0.40;;;30.20;46.20;;;;;;5005132;28;20074;-73
2023/08/23 11:56:21;;;;;;;0.47;0.47;;;30.30;46.30;;;;;;5000203;28;20054;-70
2023/08/23 11:58:47;;;;;;;0.63;0.60;;;30.40;46.50;;;;;;5011443;28;20034;-73
2023/08/23 12:01:13;;;;;;;1.45;0.80;;;30.50;46.10;;;;;;5018918;28;20599;-73
2023/08/23 12:03:39;;;;;;;0.60;0.60;;;30.60;46.20;;;;;;5014913;28;20097;-74
2023/08/23 12:06:04;;;;;;;0.50;0.50;;;30.60;46.60;;;;;;5024514;28;20033;-73
2023/08/23 12:08:30;;;;;;;2.58;0.75;;;30.60;46.30;;;;;;5009897;28;20026;-73
2023/08/23 12:10:56;;;;;;;0.75;0.60;;;30.60;45.50;;;;;;5017354;28;20088;-74
2023/08/23 12:13:21;;;;;;;0.60;0.60;;;30.50;45.30;;;;;;5004519;28;20033;-73
2023/08/23 12:15:47;;;;;;;1.00;0.50;;;30.50;45.00;;;;;;5013477;28;20080;-72
2023/08/23 12:18:13;;;;;;;1.75;0.50;;;30.50;44.60;;;;;;4999398;28;20076;-70
2023/08/23 12:20:38;;;;;;;3.03;0.98;;;30.60;45.00;;;;;;4989279;28;20048;-71
2023/08/23 12:23:04;;;;;;;1.20;0.60;;;30.60;44.50;;;;;;5009579;28;20056;-72
2023/08/23 12:25:30;;;;;;;0.93;0.90;;;30.60;44.70;;;;;;5007889;28;20038;-73
2023/08/23 12:27:55;;;;;;;0.43;0.40;;;30.60;44.30;;;;;;5005191;28;20038;-73
2023/08/23 12:30:21;;;;;;;0.68;0.68;;;30.60;44.80;;;;;;5009913;28;20065;-71
2023/08/23 12:32:47;;;;;;;0.50;0.50;;;30.80;45.10;;;;;;5012922;28;20034;-72
2023/08/23 12:35:12;;;;;;;2.47;1.02;;;30.80;44.60;;;;;;5007013;28;20037;-73
2023/08/23 12:37:38;;;;;;;0.60;0.60;;;30.90;45.50;;;;;;5008802;28;20125;-74
2023/08/23 12:40:08;;;;;;;0.55;0.55;;;31.10;45.90;;;;;;5007044;28;20415;-74
2023/08/23 12:42:34;;;;;;;0.85;0.60;;;31.40;45.30;;;;;;5005973;28;20473;-72
2023/08/23 12:45:00;;;;;;;2.17;0.60;;;31.40;43.60;;;;;;5015875;28;20018;-73